Terminal Aerodrome Forecast
Issued by NWS

Home | Current Version | Previous Version | Text Only | Print | Product List | Glossary On
Versions: 1 2 3 4 5 6 7 8 9 10 11 12 13 14 15 16 17
000
FTUS43 KBIS 281406 AAA
TAFDIK
TAF AMD
KDIK 281406Z 2814/2912 32008G17KT P6SM SKC
     FM282300 28006KT P6SM SCT090 BKN200
     FM290100 17006KT P6SM FEW080 SCT200
     FM290800 23007KT P6SM SCT030 BKN110=

USA.gov is the U.S. government's official web portal to all federal, state and local government web resources and services.